Погода METAR - Абакан

Код аэропорта ICAO:
Кемерово, Абакан, Красноярск, Новосибирск
Код METAR: UNAA 052230Z 00000MPS 9000 NSC M06/M08 Q1021 R02/090065 NOSIG RMK QFE743
TAF UNAA 051952Z 0521/0621 28003MPS 6000 SCT020 
     FM060300 15003G10MPS CAVOK
       

Погода - Сейчас

Время: 2020-04-06 05:30, местное
Направление ветра: Штиль
Скорость ветра: 0 м/с
Видимость:
Температура: -6°C
Точка росы: -8°C
Атмосферное давление: 1021 гПа

Архив погоды

Время, местное Направление Скорость, м/с Температура, °C Точка росы, °C Давление, гПа
2020-04-06 05:30 Штиль 0 -6 -8 1021
2020-04-05 23:00 СВ (50°) 2 0 -8 1025
2020-04-05 19:30 С (10°) 1 8 -8 1026
2020-04-02 05:00 Штиль 0 -4 -7 1021
2020-04-01 22:30 СЗ (320°) 1 -1 -6 1021
2020-04-01 07:30 Штиль 0 -5 -7 1025
2020-03-30 09:00 ЮЮЗ (200°) 6 1 -6 1030
2020-03-27 07:00 ЮЮВ (150°) 1 -5 -12 1025
2020-03-26 17:00 Ю (190°) 3 6 -16 1031
2020-03-24 08:00 С (360°) 1 -8 -14 1030
2020-03-22 01:00 Штиль 0 -2 -5 1009
2020-03-20 08:30 ЮЗ (210°) 7 0 -6 1015
2020-03-20 02:00 ЮЗ (230°) 7 0 -8 1016
2020-03-18 21:30 ЮЗ (220°) 6 2 -5 1017
2020-03-15 21:00 ЮЗ (210°) 7 4 0 1021
2020-03-14 21:00 Штиль 0 0 -3 1017
2020-03-13 17:00 ССЗ (340°) 3 6 -5 1025
2020-03-11 08:30 Штиль 0 -13 -15 1031
2020-03-09 03:00 ЗЮЗ (250°) 7 -5 -13 1027
2020-03-07 00:00 Штиль 0 -11 -15 1020
2020-03-06 12:30 С (360°) 6 -4 -9 1014
2020-03-06 08:30 СЗ (320°) 3 -4 -10 1011
2020-03-05 18:00 ЮЗ (210°) 6 2 -5 1011
2020-02-29 06:00 ЮЮЗ (200°) 4 -2 -6 1028
2020-02-29 03:00 ЮЗ (210°) 1 -4 -8 1028
2020-02-27 21:30 ЮЮЗ (200°) 2 0 2000
2020-02-27 10:30 С (10°) 1 0 1400
2020-02-24 05:30 Штиль 0 -13 -15 1027
2020-02-22 04:00 ЮЮЗ (200°) 2 0 -6 1016
2020-02-21 23:00 Ю (180°) 4 0 -5 1018
2020-02-21 18:00 ЮЗ (230°) 5 0 -4 1020
2020-02-21 09:30 ЮЮЗ (200°) 6 -1 -6 1024
2020-02-18 14:00 Штиль 0 0 1700
2020-02-18 08:00 Штиль 0 0 2000
2020-02-17 17:30 С (350°) 2 -10 -12 1033
2020-02-17 15:00 ССЗ (340°) 2 -8 -12 1033
2020-02-17 05:00 Штиль 0 -18 -20 1036
2020-02-15 21:30 ЗЮЗ (260°) 2 -14 -15 1035
2020-02-15 14:00 Штиль 0 -8 -13 1037
2020-02-14 14:00 Штиль 0 -6 -13 1037
2020-02-11 12:30 ССЗ (340°) 4 -10 -17 1020
2020-02-11 05:30 С (350°) 4 -10 -16 1017
2020-02-10 15:00 ССЗ (340°) 5 1 -2 1002
2020-02-09 10:30 Переменный 1 3 -6 1003
2020-02-09 09:00 ЮЗ (220°) 4 0 -7 1004
2020-02-08 00:00 ЮЮЗ (200°) 1 -3 -4 1022
2020-02-07 08:30 ЗСЗ (290°) 2 -12 -13 1023
2020-02-07 02:00 ЮВ (120°) 1 0 0